createdAt,value
2019-05-25T00:02:13.386Z,7.75
2019-05-25T00:04:43.351Z,9.95
2019-05-25T00:07:13.598Z,10.38
2019-05-25T00:09:43.906Z,8.63
2019-05-25T00:12:14.093Z,8.43
2019-05-25T00:14:44.006Z,9.85
2019-05-25T00:17:14.224Z,9.63
2019-05-25T00:19:44.239Z,7.85
2019-05-25T00:22:14.491Z,12.73
2019-05-25T00:24:50.344Z,12.63
2019-05-25T00:27:41.014Z,9.08
2019-05-25T00:30:17.625Z,10.10
2019-05-25T00:32:47.843Z,11.05
2019-05-25T00:35:18.208Z,13.72
2019-05-25T00:37:48.322Z,10.70
2019-05-25T00:40:18.742Z,12.13
2019-05-25T00:42:49.928Z,9.55
2019-05-25T00:45:19.950Z,11.73
2019-05-25T00:47:50.159Z,14.55
2019-05-25T00:50:20.040Z,11.20
2019-05-25T00:52:50.411Z,14.35
2019-05-25T00:55:20.341Z,10.75
2019-05-25T00:57:50.484Z,11.30
2019-05-25T01:00:21.578Z,10.20
2019-05-25T01:02:51.908Z,10.38
2019-05-25T01:05:22.151Z,9.08
2019-05-25T01:07:52.085Z,11.33
2019-05-25T01:10:22.200Z,11.57
2019-05-25T01:12:52.320Z,10.08
2019-05-25T01:15:23.825Z,9.03
2019-05-25T01:17:54.063Z,10.08
2019-05-25T01:20:25.554Z,13.50
2019-05-25T01:22:55.965Z,10.90
2019-05-25T01:25:25.968Z,12.05
2019-05-25T01:27:55.810Z,10.45
2019-05-25T01:30:26.113Z,10.90
2019-05-25T01:32:56.614Z,10.32
2019-05-25T01:35:26.856Z,12.70
2019-05-25T01:37:57.089Z,9.68
2019-05-25T01:40:27.418Z,13.38
2019-05-25T01:42:57.549Z,12.40
2019-05-25T01:45:27.762Z,13.98
2019-05-25T01:47:57.997Z,11.75
2019-05-25T01:50:27.954Z,10.80
2019-05-25T01:52:57.871Z,13.10
2019-05-25T01:55:27.992Z,14.07
2019-05-25T01:57:58.280Z,11.03
2019-05-25T02:00:28.639Z,10.30
2019-05-25T02:02:58.592Z,13.35
2019-05-25T02:05:28.816Z,9.25
2019-05-25T02:07:58.866Z,17.75
2019-05-25T02:10:29.164Z,8.45
2019-05-25T02:12:59.381Z,9.08
2019-05-25T02:15:29.813Z,10.85
2019-05-25T02:18:00.044Z,12.03
2019-05-25T02:20:29.960Z,10.30
2019-05-25T02:23:00.262Z,12.45
2019-05-25T02:25:30.625Z,10.15
2019-05-25T02:28:00.783Z,10.03
2019-05-25T02:30:30.889Z,12.05
2019-05-25T02:33:00.908Z,10.13
2019-05-25T02:35:31.465Z,10.98
2019-05-25T02:38:01.798Z,9.50
2019-05-25T02:40:32.192Z,10.10
2019-05-25T02:43:02.641Z,11.85
2019-05-25T02:45:32.965Z,10.15
2019-05-25T02:48:03.400Z,12.05
2019-05-25T02:50:33.646Z,11.08
2019-05-25T02:53:03.931Z,11.10
2019-05-25T02:55:35.147Z,10.78
2019-05-25T02:58:05.730Z,10.85
2019-05-25T03:00:36.295Z,10.05
2019-05-25T03:03:06.609Z,11.73
2019-05-25T03:05:36.515Z,11.03
2019-05-25T03:08:06.581Z,13.58
2019-05-25T03:10:37.395Z,10.70
2019-05-25T03:13:08.565Z,11.63
2019-05-25T03:15:38.943Z,11.12
2019-05-25T03:18:08.887Z,13.20
2019-05-25T03:20:39.158Z,10.82
2019-05-25T03:23:09.413Z,12.23
2019-05-25T03:25:49.203Z,11.43
2019-05-25T03:28:11.846Z,12.23
2019-05-25T03:30:41.877Z,12.68
2019-05-25T03:33:12.204Z,12.07
2019-05-25T03:35:42.473Z,14.25
2019-05-25T03:38:12.389Z,10.50
2019-05-25T03:40:42.672Z,14.75
2019-05-25T03:43:13.045Z,9.58
2019-05-25T03:45:43.401Z,11.28
2019-05-25T03:48:13.370Z,11.43
2019-05-25T03:50:43.738Z,11.05
2019-05-25T03:53:13.566Z,11.63
2019-05-25T03:55:43.936Z,13.68
2019-05-25T03:58:13.834Z,18.30
2019-05-25T04:00:44.199Z,16.12
2019-05-25T04:03:14.363Z,12.28
2019-05-25T04:05:44.495Z,11.73
2019-05-25T04:08:14.448Z,12.40
2019-05-25T04:10:44.894Z,10.23
2019-05-25T04:13:17.025Z,14.55
2019-05-25T04:15:47.301Z,11.00
2019-05-25T04:18:17.486Z,13.90
2019-05-25T04:20:47.713Z,16.93
2019-05-25T04:23:17.646Z,12.73
2019-05-25T04:25:47.870Z,14.68
2019-05-25T04:28:17.779Z,15.90
2019-05-25T04:30:47.969Z,13.55
2019-05-25T04:33:18.255Z,11.12
2019-05-25T04:35:48.351Z,12.82
2019-05-25T04:38:18.559Z,13.72
2019-05-25T04:40:49.474Z,12.55
2019-05-25T04:43:19.637Z,14.10
2019-05-25T04:45:49.867Z,10.85
2019-05-25T04:48:19.843Z,11.85
2019-05-25T04:50:50.016Z,11.00
2019-05-25T04:53:20.149Z,9.93
2019-05-25T04:55:50.254Z,12.23
2019-05-25T04:58:20.405Z,13.03
2019-05-25T05:00:50.483Z,15.20
2019-05-25T05:03:20.382Z,14.95
2019-05-25T05:05:50.220Z,12.40
2019-05-25T05:08:20.466Z,16.97
2019-05-25T05:10:50.724Z,15.18
2019-05-25T05:13:20.918Z,13.30
2019-05-25T05:15:51.018Z,16.77
2019-05-25T05:18:21.163Z,12.98
2019-05-25T05:20:51.007Z,14.98
2019-05-25T05:23:21.166Z,13.30
2019-05-25T05:25:51.304Z,15.20
2019-05-25T05:28:21.223Z,18.45
2019-05-25T05:30:51.480Z,16.12
2019-05-25T05:33:21.627Z,24.37
2019-05-25T05:35:52.206Z,17.23
2019-05-25T05:38:23.763Z,12.33
2019-05-25T05:40:55.905Z,14.75
2019-05-25T05:43:29.032Z,12.03
2019-05-25T05:46:01.094Z,15.00
2019-05-25T05:48:33.097Z,15.20
2019-05-25T05:51:05.330Z,14.35
2019-05-25T05:53:37.392Z,13.85
2019-05-25T05:56:07.646Z,11.95
2019-05-25T05:58:37.979Z,13.08
2019-05-25T06:01:07.823Z,10.98
2019-05-25T06:03:38.206Z,12.35
2019-05-25T06:06:08.535Z,20.85
2019-05-25T06:08:39.047Z,12.37
2019-05-25T06:11:09.175Z,14.60
2019-05-25T06:13:39.338Z,16.37
2019-05-25T06:16:09.340Z,18.37
2019-05-25T06:18:39.540Z,16.35
2019-05-25T06:21:09.664Z,24.18
2019-05-25T06:23:40.065Z,24.15
2019-05-25T06:26:10.293Z,22.13
2019-05-25T06:28:40.548Z,18.52
2019-05-25T06:31:10.715Z,22.82
2019-05-25T06:33:40.895Z,22.85
2019-05-25T06:36:11.373Z,19.62
2019-05-25T06:38:41.666Z,21.48
2019-05-25T06:41:11.723Z,24.60
2019-05-25T06:43:45.478Z,19.00
2019-05-25T06:46:15.700Z,21.20
2019-05-25T06:48:45.912Z,20.27
2019-05-25T06:51:16.144Z,19.60
2019-05-25T06:53:46.056Z,19.82
2019-05-25T06:56:15.991Z,23.80
2019-05-25T06:58:46.084Z,22.62
2019-05-25T07:01:16.343Z,20.35
2019-05-25T07:03:46.328Z,23.20
2019-05-25T07:06:16.628Z,21.27
2019-05-25T07:08:46.793Z,24.15
2019-05-25T07:11:17.067Z,22.13
2019-05-25T07:13:47.272Z,23.00
2019-05-25T07:16:17.138Z,18.42
2019-05-25T07:18:47.060Z,17.48
2019-05-25T07:21:18.187Z,21.50
2019-05-25T07:23:48.378Z,22.22
2019-05-25T07:26:18.573Z,19.17
2019-05-25T07:28:48.693Z,19.00
2019-05-25T07:31:18.993Z,18.67
2019-05-25T07:33:49.175Z,18.57
2019-05-25T07:36:19.455Z,20.57
2019-05-25T07:38:49.627Z,17.98
2019-05-25T07:41:19.589Z,18.65
2019-05-25T07:43:49.782Z,18.92
2019-05-25T07:46:19.694Z,19.35
2019-05-25T07:48:50.503Z,16.52
2019-05-25T07:51:20.759Z,18.20
2019-05-25T07:53:50.924Z,18.12
2019-05-25T07:56:21.169Z,18.62
2019-05-25T07:58:51.438Z,20.17
2019-05-25T08:01:21.391Z,20.95
2019-05-25T08:03:52.355Z,19.87
2019-05-25T08:06:22.680Z,16.00
2019-05-25T08:08:52.832Z,14.85
2019-05-25T08:11:22.813Z,16.52
2019-05-25T08:13:53.024Z,18.62
2019-05-25T08:16:23.209Z,15.65
2019-05-25T08:18:53.414Z,15.45
2019-05-25T08:21:23.564Z,17.52
2019-05-25T08:23:53.756Z,18.23
2019-05-25T08:26:23.651Z,15.70
2019-05-25T08:28:53.884Z,14.73
2019-05-25T08:31:23.999Z,19.23
2019-05-25T08:33:54.014Z,18.23
2019-05-25T08:36:23.932Z,19.07
2019-05-25T08:38:54.893Z,15.85
2019-05-25T08:41:25.013Z,14.43
2019-05-25T08:43:59.808Z,13.43
2019-05-25T08:46:29.909Z,13.70
2019-05-25T08:48:59.893Z,14.80
2019-05-25T08:51:29.731Z,15.10
2019-05-25T08:53:59.953Z,17.62
2019-05-25T08:56:30.144Z,12.65
2019-05-25T08:59:00.015Z,15.03
2019-05-25T09:01:29.875Z,27.32
2019-05-25T09:04:00.054Z,20.75
2019-05-25T09:06:30.307Z,16.12
2019-05-25T09:09:00.187Z,16.90
2019-05-25T09:11:30.307Z,16.57
2019-05-25T09:14:00.444Z,20.10
2019-05-25T09:16:30.346Z,15.58
2019-05-25T09:19:00.194Z,12.73
2019-05-25T09:21:30.331Z,14.93
2019-05-25T09:24:00.269Z,19.62
2019-05-25T09:26:30.361Z,12.82
2019-05-25T09:29:04.391Z,12.25
2019-05-25T09:31:32.119Z,17.13
2019-05-25T09:34:02.281Z,13.80
2019-05-25T09:36:32.467Z,14.07
2019-05-25T09:39:02.591Z,16.23
2019-05-25T09:41:32.674Z,13.13
2019-05-25T09:44:02.922Z,13.03
2019-05-25T09:46:33.069Z,11.88
2019-05-25T09:49:03.081Z,12.80
2019-05-25T09:51:33.363Z,16.45
2019-05-25T09:54:03.470Z,14.98
2019-05-25T09:56:33.702Z,12.05
2019-05-25T09:59:19.280Z,13.60
2019-05-25T10:01:36.712Z,13.98
2019-05-25T10:04:06.918Z,15.25
2019-05-25T10:06:36.925Z,14.38
2019-05-25T10:09:07.890Z,12.00
2019-05-25T10:11:38.196Z,11.97
2019-05-25T10:14:08.357Z,15.83
2019-05-25T10:16:38.634Z,10.50
2019-05-25T10:19:08.846Z,10.63
2019-05-25T10:21:40.233Z,12.13
2019-05-25T10:24:10.373Z,9.43
2019-05-25T10:26:40.727Z,9.28
2019-05-25T10:29:10.940Z,12.78
2019-05-25T10:31:41.223Z,10.10
2019-05-25T10:34:11.388Z,12.58
2019-05-25T10:36:41.390Z,15.63
2019-05-25T10:39:11.548Z,14.83
2019-05-25T10:41:41.801Z,14.65
2019-05-25T10:44:12.003Z,11.57
2019-05-25T10:46:42.181Z,10.68
2019-05-25T10:49:12.037Z,12.45
2019-05-25T10:51:42.337Z,9.80
2019-05-25T10:54:12.483Z,10.58
2019-05-25T10:56:42.684Z,9.95
2019-05-25T10:59:12.886Z,10.00
2019-05-25T11:01:43.166Z,12.00
2019-05-25T11:04:13.440Z,11.20
2019-05-25T11:06:43.541Z,11.53
2019-05-25T11:09:13.835Z,9.58
2019-05-25T11:11:43.999Z,12.80
2019-05-25T11:14:14.245Z,8.73
2019-05-25T11:16:44.403Z,9.30
2019-05-25T11:19:14.520Z,10.90
2019-05-25T11:21:44.644Z,9.05
2019-05-25T11:24:14.841Z,9.43
2019-05-25T11:26:44.973Z,34.58
2019-05-25T11:29:15.227Z,9.70
2019-05-25T11:31:54.648Z,9.50
2019-05-25T11:34:17.277Z,10.08
2019-05-25T11:36:47.477Z,15.00
2019-05-25T11:39:17.499Z,8.75
2019-05-25T11:41:47.416Z,10.23
2019-05-25T11:44:17.555Z,9.43
2019-05-25T11:46:47.682Z,10.58
2019-05-25T11:49:22.438Z,11.12
2019-05-25T11:51:49.717Z,13.75
2019-05-25T11:54:19.967Z,14.93
2019-05-25T11:56:49.951Z,9.40
2019-05-25T11:59:19.931Z,13.00
2019-05-25T12:01:50.081Z,8.33
2019-05-25T12:04:20.081Z,10.20
2019-05-25T12:06:50.221Z,8.48
2019-05-25T12:09:20.394Z,10.15
2019-05-25T12:11:50.500Z,12.68
2019-05-25T12:14:20.465Z,12.05
2019-05-25T12:16:50.408Z,8.08
2019-05-25T12:19:20.424Z,8.63
2019-05-25T12:21:50.634Z,7.78
2019-05-25T12:24:21.878Z,11.57
2019-05-25T12:26:51.771Z,10.20
2019-05-25T12:29:22.006Z,9.23
2019-05-25T12:32:03.420Z,9.95
2019-05-25T12:34:23.695Z,9.58
2019-05-25T12:36:53.570Z,7.65
2019-05-25T12:39:26.605Z,9.43
2019-05-25T12:41:55.682Z,14.73
2019-05-25T12:44:25.821Z,8.28
2019-05-25T12:46:55.992Z,10.80
2019-05-25T12:49:26.086Z,8.95
2019-05-25T12:51:56.198Z,9.15
2019-05-25T12:54:26.307Z,11.22
2019-05-25T12:56:56.459Z,8.85
2019-05-25T12:59:26.755Z,9.15
2019-05-25T13:01:56.724Z,10.65
2019-05-25T13:04:28.148Z,11.30
2019-05-25T13:06:58.346Z,10.13
2019-05-25T13:09:28.447Z,6.00
2019-05-25T13:11:58.693Z,4.67
2019-05-25T13:14:28.828Z,5.03
2019-05-25T13:16:59.000Z,8.33
2019-05-25T13:19:29.199Z,9.38
2019-05-25T13:21:59.546Z,10.65
2019-05-25T13:24:30.712Z,8.50
2019-05-25T13:27:00.850Z,5.40
2019-05-25T13:29:30.910Z,8.23
2019-05-25T13:32:01.136Z,9.73
2019-05-25T13:34:31.339Z,8.88
2019-05-25T13:37:02.048Z,6.08
2019-05-25T13:39:32.174Z,6.25
2019-05-25T13:42:02.299Z,5.30
2019-05-25T13:44:32.702Z,6.78
2019-05-25T13:47:02.911Z,7.60
2019-05-25T13:49:33.220Z,7.37
2019-05-25T13:52:03.463Z,6.47
2019-05-25T13:54:33.424Z,6.62
2019-05-25T13:57:03.608Z,7.42
2019-05-25T13:59:34.923Z,11.78
2019-05-25T14:02:05.356Z,9.98
2019-05-25T14:04:35.654Z,6.50
2019-05-25T14:07:05.892Z,7.83
2019-05-25T14:09:35.810Z,7.53
2019-05-25T14:12:06.018Z,6.75
2019-05-25T14:14:36.250Z,6.75
2019-05-25T14:17:06.211Z,6.37
2019-05-25T14:19:36.399Z,12.98
2019-05-25T14:22:06.450Z,8.65
2019-05-25T14:24:36.724Z,9.80
2019-05-25T14:27:07.060Z,8.13
2019-05-25T14:29:37.612Z,9.40
2019-05-25T14:32:07.925Z,6.92
2019-05-25T14:34:38.190Z,10.60
2019-05-25T14:37:08.428Z,10.23
2019-05-25T14:39:38.425Z,11.03
2019-05-25T14:42:08.403Z,12.43
2019-05-25T14:44:38.339Z,10.68
2019-05-25T14:47:08.556Z,8.68
2019-05-25T14:49:39.780Z,8.13
2019-05-25T14:52:10.150Z,9.40
2019-05-25T14:54:40.357Z,5.72
2019-05-25T14:57:10.610Z,5.60
2019-05-25T14:59:40.805Z,7.70
2019-05-25T15:02:11.054Z,7.15
2019-05-25T15:04:41.312Z,6.95
2019-05-25T15:07:11.378Z,5.40
2019-05-25T15:09:41.751Z,6.47
2019-05-25T15:12:12.093Z,5.60
2019-05-25T15:14:42.270Z,4.42
2019-05-25T15:17:12.416Z,5.65
2019-05-25T15:19:43.640Z,4.90
2019-05-25T15:22:14.079Z,5.42
2019-05-25T15:24:44.188Z,5.75
2019-05-25T15:27:14.313Z,5.28
2019-05-25T15:29:44.435Z,6.90
2019-05-25T15:32:19.918Z,5.12
2019-05-25T15:34:46.556Z,6.20
2019-05-25T15:37:17.851Z,4.17
2019-05-25T15:39:48.097Z,3.77
2019-05-25T15:42:18.013Z,4.47
2019-05-25T15:44:48.203Z,4.33
2019-05-25T15:47:18.397Z,4.75
2019-05-25T15:49:48.627Z,3.37
2019-05-25T15:52:19.743Z,4.78
2019-05-25T15:54:49.697Z,4.90
2019-05-25T15:57:19.634Z,4.75
2019-05-25T15:59:49.916Z,5.75
2019-05-25T16:02:35.736Z,3.12
2019-05-25T16:04:53.819Z,5.30
2019-05-25T16:07:24.188Z,13.88
2019-05-25T16:09:54.147Z,6.12
2019-05-25T16:12:25.371Z,6.22
2019-05-25T16:14:55.562Z,5.40
2019-05-25T16:17:26.249Z,4.37
2019-05-25T16:19:56.580Z,3.85
2019-05-25T16:22:26.811Z,2.77
2019-05-25T16:24:56.983Z,3.12
2019-05-25T16:27:27.230Z,6.60
2019-05-25T16:29:57.602Z,6.33
2019-05-25T16:32:27.893Z,2.02
2019-05-25T16:34:58.100Z,2.62
2019-05-25T16:37:28.501Z,4.15
2019-05-25T16:39:58.424Z,5.50
2019-05-25T16:42:28.805Z,5.10
2019-05-25T16:44:59.012Z,4.97
2019-05-25T16:47:29.111Z,2.60
2019-05-25T16:49:59.047Z,5.37
2019-05-25T16:52:29.365Z,3.72
2019-05-25T16:54:59.561Z,2.35
2019-05-25T16:57:29.958Z,4.42
2019-05-25T16:59:59.965Z,3.37
2019-05-25T17:02:30.137Z,5.28
2019-05-25T17:05:00.507Z,5.28
2019-05-25T17:07:30.778Z,6.92
2019-05-25T17:10:00.727Z,6.53
2019-05-25T17:12:30.593Z,6.05
2019-05-25T17:15:00.602Z,5.30
2019-05-25T17:17:30.942Z,4.62
2019-05-25T17:20:01.144Z,4.65
2019-05-25T17:22:31.605Z,6.33
2019-05-25T17:25:02.025Z,6.15
2019-05-25T17:27:32.359Z,5.83
2019-05-25T17:30:02.482Z,6.30
2019-05-25T17:32:32.496Z,4.40
2019-05-25T17:35:02.723Z,5.97
2019-05-25T17:37:32.972Z,4.62
2019-05-25T17:40:06.024Z,5.60
2019-05-25T17:42:36.277Z,4.75
2019-05-25T17:45:13.801Z,4.15
2019-05-25T17:47:46.796Z,4.20
2019-05-25T17:50:16.864Z,3.47
2019-05-25T17:52:47.038Z,3.37
2019-05-25T17:55:17.618Z,3.15
2019-05-25T17:57:48.795Z,3.67
2019-05-25T18:00:42.179Z,2.72
2019-05-25T18:03:13.599Z,5.15
2019-05-25T18:05:43.837Z,4.30
2019-05-25T18:08:14.021Z,4.55
2019-05-25T18:10:52.698Z,2.87
2019-05-25T18:13:15.687Z,3.50
2019-05-25T18:15:45.844Z,2.40
2019-05-25T18:18:16.113Z,4.42
2019-05-25T18:20:46.491Z,4.67
2019-05-25T18:23:18.866Z,4.22
2019-05-25T18:25:48.983Z,2.55
2019-05-25T18:28:19.280Z,2.52
2019-05-25T18:30:49.174Z,3.77
2019-05-25T18:33:19.410Z,4.50
2019-05-25T18:35:49.878Z,8.55
2019-05-25T18:38:20.097Z,4.45
2019-05-25T18:40:50.390Z,2.58
2019-05-25T18:43:20.355Z,2.40
2019-05-25T18:45:51.625Z,4.22
2019-05-25T18:48:21.832Z,2.02
2019-05-25T18:50:52.129Z,3.05
2019-05-25T18:53:22.413Z,3.30
2019-05-25T18:55:52.290Z,1.70
2019-05-25T18:58:22.534Z,2.37
2019-05-25T19:00:52.520Z,4.30
2019-05-25T19:03:22.983Z,2.42
2019-05-25T19:05:53.294Z,3.62
2019-05-25T19:08:23.404Z,4.90
2019-05-25T19:10:54.607Z,2.45
2019-05-25T19:13:24.865Z,3.77
2019-05-25T19:15:54.975Z,3.45
2019-05-25T19:18:24.991Z,3.20
2019-05-25T19:20:55.242Z,3.20
2019-05-25T19:23:25.284Z,3.67
2019-05-25T19:25:55.480Z,3.15
2019-05-25T19:28:25.465Z,3.25
2019-05-25T19:30:55.592Z,3.75
2019-05-25T19:33:25.828Z,2.35
2019-05-25T19:35:56.179Z,3.50
2019-05-25T19:38:26.123Z,3.58
2019-05-25T19:40:56.142Z,5.33
2019-05-25T19:43:26.511Z,7.67
2019-05-25T19:45:56.701Z,5.80
2019-05-25T19:48:27.803Z,6.60
2019-05-25T19:50:58.039Z,6.67
2019-05-25T19:53:30.107Z,7.75
2019-05-25T19:56:00.409Z,5.97
2019-05-25T19:58:30.739Z,3.47
2019-05-25T20:01:01.055Z,4.90
2019-05-25T20:03:34.219Z,4.87
2019-05-25T20:06:04.482Z,6.40
2019-05-25T20:08:34.763Z,5.87
2019-05-25T20:11:04.737Z,10.53
2019-05-25T20:13:35.006Z,6.05
2019-05-25T20:16:06.747Z,7.97
2019-05-25T20:18:36.756Z,3.25
2019-05-25T20:21:08.162Z,4.37
2019-05-25T20:23:38.354Z,5.65
2019-05-25T20:26:08.395Z,4.67
2019-05-25T20:28:38.627Z,4.03
2019-05-25T20:31:08.850Z,5.62
2019-05-25T20:33:43.112Z,3.80
2019-05-25T20:36:13.073Z,7.30
2019-05-25T20:38:43.161Z,6.28
2019-05-25T20:41:13.432Z,6.85
2019-05-25T20:43:43.619Z,4.25
2019-05-25T20:46:13.923Z,6.10
2019-05-25T20:48:43.882Z,5.47
2019-05-25T20:51:13.978Z,7.87
2019-05-25T20:53:44.124Z,12.13
2019-05-25T20:56:15.228Z,7.42
2019-05-25T20:58:45.393Z,5.25
2019-05-25T21:01:15.405Z,5.30
2019-05-25T21:03:45.938Z,4.58
2019-05-25T21:06:17.343Z,5.47
2019-05-25T21:08:47.956Z,8.43
2019-05-25T21:11:18.292Z,14.38
2019-05-25T21:13:49.616Z,19.30
2019-05-25T21:16:20.260Z,12.75
2019-05-25T21:18:52.174Z,18.17
2019-05-25T21:21:22.384Z,11.80
2019-05-25T21:23:52.576Z,9.53
2019-05-25T21:26:25.653Z,8.28
2019-05-25T21:28:55.648Z,5.80
2019-05-25T21:31:26.067Z,8.20
2019-05-25T21:33:56.282Z,6.92
2019-05-25T21:36:26.488Z,6.75
2019-05-25T21:38:56.861Z,7.28
2019-05-25T21:41:26.981Z,7.37
2019-05-25T21:43:56.905Z,7.67
2019-05-25T21:46:27.000Z,7.65
2019-05-25T21:48:57.302Z,6.72
2019-05-25T21:51:27.213Z,6.62
2019-05-25T21:53:57.649Z,10.75
2019-05-25T21:56:27.934Z,5.95
2019-05-25T21:58:58.020Z,8.05
2019-05-25T22:01:28.279Z,6.40
2019-05-25T22:03:58.260Z,5.35
2019-05-25T22:06:28.675Z,7.75
2019-05-25T22:08:58.830Z,5.85
2019-05-25T22:11:29.089Z,7.03
2019-05-25T22:13:59.233Z,8.98
2019-05-25T22:16:29.185Z,8.00
2019-05-25T22:18:59.194Z,10.55
2019-05-25T22:21:29.482Z,6.15
2019-05-25T22:23:59.770Z,7.47
2019-05-25T22:26:29.751Z,7.90
2019-05-25T22:28:59.891Z,7.60
2019-05-25T22:31:31.074Z,7.33
2019-05-25T22:34:01.308Z,8.28
2019-05-25T22:36:40.357Z,8.80
2019-05-25T22:39:04.191Z,9.25
2019-05-25T22:41:34.742Z,9.58
2019-05-25T22:44:05.063Z,9.98
2019-05-25T22:46:35.174Z,8.15
2019-05-25T22:49:05.127Z,10.08
2019-05-25T22:51:36.051Z,9.73
2019-05-25T22:54:06.422Z,7.97
2019-05-25T22:56:36.687Z,11.35
2019-05-25T22:59:06.923Z,10.90
2019-05-25T23:01:37.114Z,10.60
2019-05-25T23:04:06.940Z,5.70
2019-05-25T23:06:36.867Z,7.70
2019-05-25T23:09:07.554Z,7.15
2019-05-25T23:11:37.707Z,7.22
2019-05-25T23:14:09.979Z,8.33
2019-05-25T23:16:39.709Z,12.93
2019-05-25T23:19:09.966Z,7.30
2019-05-25T23:21:40.157Z,7.25
2019-05-25T23:24:10.376Z,5.75
2019-05-25T23:26:40.554Z,7.28
2019-05-25T23:29:10.875Z,8.15
2019-05-25T23:31:41.078Z,9.33
2019-05-25T23:34:10.947Z,6.62
2019-05-25T23:36:41.186Z,10.60
2019-05-25T23:39:11.463Z,8.45
2019-05-25T23:41:41.700Z,10.55
2019-05-25T23:44:11.881Z,6.83
2019-05-25T23:46:42.473Z,6.40
2019-05-25T23:49:12.719Z,7.25
2019-05-25T23:51:43.011Z,6.87
2019-05-25T23:54:13.184Z,7.22
2019-05-25T23:56:43.461Z,10.15
2019-05-25T23:59:13.328Z,8.38
